Time;durP1;ratioP1;P1;durP2;ratioP2;P2;SDS_P1;SDS_P2;PMS_P1;PMS_P2;Temp;Humidity;BMP_temperature;BMP_pressure;BME280_temperature;BME280_humidity;BME280_pressure;Samples;Min_cycle;Max_cycle;Signal;HPM_P1;HPM_P2
2022/05/12 00:02:19;;;;;;;3.85;2.20;;;;;;;8.81;63.67;100012.09;5008644;28;20054;-48
2022/05/12 00:04:46;;;;;;;7.03;1.25;;;;;;;8.79;64.88;100020.69;5015236;28;20500;-50
2022/05/12 00:07:12;;;;;;;3.60;1.55;;;;;;;8.79;64.56;100024.16;5028893;28;20046;-47
2022/05/12 00:09:39;;;;;;;3.78;3.28;;;;;;;8.79;63.78;100028.44;5004779;28;20111;-45
2022/05/12 00:12:07;;;;;;;2.97;1.83;;;;;;;8.76;64.33;100036.16;5018994;28;20501;-46
2022/05/12 00:14:33;;;;;;;4.15;2.33;;;;;;;8.73;64.33;100035.31;5018518;28;20223;-44
2022/05/12 00:17:01;;;;;;;7.40;3.83;;;;;;;8.71;64.86;100042.19;5003586;28;20429;-45
2022/05/12 00:19:29;;;;;;;4.32;1.90;;;;;;;8.69;64.66;100038.75;5006536;28;20053;-46
2022/05/12 00:21:55;;;;;;;4.15;2.40;;;;;;;8.69;64.47;100038.75;5006740;28;20125;-43
2022/05/12 00:24:22;;;;;;;5.43;2.42;;;;;;;8.68;64.07;100037.00;5004639;28;20052;-44
2022/05/12 00:26:49;;;;;;;5.95;2.15;;;;;;;8.68;64.30;100042.16;5006655;28;20674;-45
2022/05/12 00:29:16;;;;;;;5.05;2.17;;;;;;;8.65;65.05;100039.56;5017375;28;20716;-43
2022/05/12 00:31:45;;;;;;;4.13;2.33;;;;;;;8.64;65.04;100040.41;5025420;28;20053;-43
2022/05/12 00:34:13;;;;;;;3.20;2.33;;;;;;;8.62;64.44;100031.81;5009506;28;20107;-48
2022/05/12 00:36:40;;;;;;;5.35;2.22;;;;;;;8.60;64.99;100039.56;5003872;28;20057;-47
2022/05/12 00:39:06;;;;;;;2.35;1.92;;;;;;;8.58;65.08;100041.25;5007565;28;20058;-47
2022/05/12 00:41:34;;;;;;;2.90;1.95;;;;;;;8.56;65.42;100037.81;5006552;28;20458;-47
2022/05/12 00:44:05;;;;;;;2.85;2.55;;;;;;;8.55;65.27;100046.38;5008746;28;20041;-47
2022/05/12 00:46:36;;;;;;;3.70;2.05;;;;;;;8.55;64.63;100040.38;4991004;28;20096;-51
2022/05/12 00:49:10;;;;;;;2.58;1.92;;;;;;;8.48;64.53;100035.13;5005788;28;20042;-45
2022/05/12 00:51:42;;;;;;;4.93;2.08;;;;;;;8.48;65.13;100045.47;5008248;28;20057;-44
2022/05/12 00:54:16;;;;;;;6.25;2.72;;;;;;;8.47;64.66;100037.72;5004648;28;20100;-49
2022/05/12 00:56:44;;;;;;;4.07;2.45;;;;;;;8.49;65.61;100038.59;5008157;28;20113;-46
2022/05/12 00:59:16;;;;;;;2.90;2.70;;;;;;;8.46;65.00;100047.19;5005970;28;20054;-49
2022/05/12 01:01:43;;;;;;;5.18;2.58;;;;;;;8.45;64.44;100045.44;5005689;28;20453;-46
2022/05/12 01:04:09;;;;;;;5.32;2.30;;;;;;;8.45;65.44;100045.44;5003787;28;20134;-46
2022/05/12 01:06:36;;;;;;;2.42;2.17;;;;;;;8.44;64.98;100043.72;5008876;28;20054;-45
2022/05/12 01:09:03;;;;;;;2.60;2.00;;;;;;;8.45;65.20;100053.19;5007270;28;20046;-46
2022/05/12 01:11:30;;;;;;;3.47;1.83;;;;;;;8.43;64.92;100049.75;5007075;28;20096;-49
2022/05/12 01:14:01;;;;;;;3.05;2.30;;;;;;;8.42;65.09;100045.44;5002397;28;20050;-45
2022/05/12 01:16:57;;;;;;;3.17;2.17;;;;;;;8.36;64.89;100059.19;5002723;28;20046;-45
2022/05/12 01:19:29;;;;;;;4.32;2.10;;;;;;;8.38;65.95;100056.59;5002960;28;20053;-48
2022/05/12 01:21:57;;;;;;;2.08;1.52;;;;;;;8.36;65.47;100050.56;5006922;28;20427;-44
2022/05/12 01:24:30;;;;;;;3.60;2.53;;;;;;;8.34;65.16;100052.25;5005815;28;20475;-47
2022/05/12 01:26:58;;;;;;;7.00;1.90;;;;;;;8.31;65.34;100060.84;5005652;28;20042;-47
2022/05/12 01:29:25;;;;;;;3.22;2.00;;;;;;;8.30;65.29;100066.88;5008619;28;20054;-46
2022/05/12 01:31:52;;;;;;;4.45;2.05;;;;;;;8.30;65.76;100071.16;5002093;28;20117;-46
2022/05/12 01:34:21;;;;;;;2.70;2.08;;;;;;;8.26;64.96;100069.41;5006648;28;20050;-46
2022/05/12 01:36:48;;;;;;;2.88;2.40;;;;;;;8.24;66.56;100066.81;5003226;28;20061;-45
2022/05/12 01:39:14;;;;;;;2.63;1.25;;;;;;;8.22;65.18;100066.81;5004450;28;20442;-45
2022/05/12 01:41:41;;;;;;;3.25;1.88;;;;;;;8.21;66.57;100062.50;5005749;28;20042;-47
2022/05/12 01:44:07;;;;;;;2.22;1.75;;;;;;;8.18;66.33;100070.22;5008779;28;20053;-47
2022/05/12 01:46:34;;;;;;;2.70;2.50;;;;;;;8.16;65.62;100074.50;5003989;28;20141;-49
2022/05/12 01:49:01;;;;;;;5.10;2.58;;;;;;;8.15;66.34;100067.63;5005492;28;20050;-50
2022/05/12 01:51:28;;;;;;;5.60;2.05;;;;;;;8.11;66.12;100076.19;5026884;28;20042;-47
2022/05/12 01:53:55;;;;;;;4.15;1.92;;;;;;;8.09;66.37;100065.88;5011217;28;20112;-46
2022/05/12 01:56:21;;;;;;;2.88;1.67;;;;;;;8.07;65.48;100070.13;5008567;28;20112;-45
2022/05/12 01:58:48;;;;;;;2.05;1.80;;;;;;;8.06;66.98;100075.28;5005309;28;20141;-43
2022/05/12 02:01:14;;;;;;;2.97;1.88;;;;;;;8.04;66.76;100069.25;5005843;28;20058;-44
2022/05/12 02:03:41;;;;;;;2.65;0.65;;;;;;;8.04;67.16;100070.09;5005308;28;20778;-48
2022/05/12 02:06:08;;;;;;;3.95;1.85;;;;;;;8.03;66.28;100077.81;5005329;28;20054;-48
2022/05/12 02:08:34;;;;;;;2.30;2.08;;;;;;;8.01;67.01;100066.66;5004582;28;20050;-52
2022/05/12 02:11:01;;;;;;;3.40;1.55;;;;;;;8.02;66.15;100076.09;5006597;28;20100;-47
2022/05/12 02:13:28;;;;;;;4.30;2.05;;;;;;;8.01;67.33;100075.25;5006798;28;20049;-46
2022/05/12 02:15:56;;;;;;;2.53;1.60;;;;;;;8.02;66.03;100082.13;5009221;28;20103;-48
2022/05/12 02:18:24;;;;;;;4.60;2.17;;;;;;;8.02;67.48;100076.09;5001730;28;20057;-46
2022/05/12 02:20:51;;;;;;;4.03;2.25;;;;;;;8.01;66.49;100087.28;5007903;28;20056;-46
2022/05/12 02:23:18;;;;;;;5.82;2.03;;;;;;;7.99;66.02;100087.28;5004970;28;20042;-45
2022/05/12 02:25:45;;;;;;;2.85;2.17;;;;;;;7.96;66.82;100088.13;5006703;28;20050;-46
2022/05/12 02:28:12;;;;;;;4.20;2.30;;;;;;;7.95;67.56;100086.41;4990285;28;20551;-43
2022/05/12 02:30:39;;;;;;;4.25;2.33;;;;;;;7.95;67.08;100086.41;5003212;28;20053;-49
2022/05/12 02:33:06;;;;;;;3.38;2.05;;;;;;;7.92;67.74;100086.34;5014137;28;20104;-44
2022/05/12 02:35:33;;;;;;;4.68;2.38;;;;;;;7.91;67.32;100089.75;5016141;28;20096;-48
2022/05/12 02:38:00;;;;;;;3.53;2.38;;;;;;;7.90;67.03;100093.19;5019355;28;20100;-46
2022/05/12 02:40:28;;;;;;;3.78;2.22;;;;;;;7.90;67.85;100093.19;5008148;28;20046;-48
2022/05/12 02:42:57;;;;;;;2.40;1.88;;;;;;;7.90;66.46;100106.09;5005102;28;20064;-44
2022/05/12 02:45:25;;;;;;;5.88;1.65;;;;;;;7.89;67.18;100112.13;5003613;28;20409;-44
2022/05/12 02:47:52;;;;;;;4.43;2.25;;;;;;;7.85;67.35;100110.38;5002722;28;20104;-46
2022/05/12 02:50:20;;;;;;;3.25;1.50;;;;;;;7.81;67.16;100114.59;5008171;28;20076;-45
2022/05/12 02:52:46;;;;;;;3.92;2.08;;;;;;;7.79;67.74;100112.88;5002848;28;20049;-45
2022/05/12 02:55:13;;;;;;;5.40;2.83;;;;;;;7.77;67.07;100119.75;5004574;28;20128;-43
2022/05/12 02:57:41;;;;;;;3.20;2.22;;;;;;;7.74;67.21;100118.00;5006412;28;20494;-43
2022/05/12 03:00:11;;;;;;;3.00;2.22;;;;;;;7.70;67.43;100127.41;5000111;28;20054;-43
2022/05/12 03:02:38;;;;;;;3.17;2.42;;;;;;;7.68;68.76;100123.97;5006262;28;20050;-47
2022/05/12 03:05:05;;;;;;;3.20;2.85;;;;;;;7.67;67.82;100127.38;5006534;28;20112;-43
2022/05/12 03:07:33;;;;;;;2.50;1.88;;;;;;;7.66;67.75;100125.66;4986062;28;20079;-45
2022/05/12 03:10:00;;;;;;;2.78;2.05;;;;;;;7.62;67.75;100118.72;5006910;28;20045;-43
2022/05/12 03:12:26;;;;;;;3.00;1.88;;;;;;;7.59;67.83;100123.84;5006103;28;20096;-44
2022/05/12 03:14:54;;;;;;;3.53;2.30;;;;;;;7.60;68.51;100133.28;5007952;28;20046;-45
2022/05/12 03:17:21;;;;;;;2.05;1.58;;;;;;;7.58;69.20;100132.44;5007120;28;20057;-47
2022/05/12 03:19:48;;;;;;;6.45;1.60;;;;;;;7.56;69.40;100128.97;5001829;28;20137;-45
2022/05/12 03:22:15;;;;;;;6.68;2.22;;;;;;;7.56;69.24;100139.28;5005777;28;20046;-47
2022/05/12 03:24:41;;;;;;;5.97;2.45;;;;;;;7.55;68.23;100132.41;5008689;28;20050;-47
2022/05/12 03:27:08;;;;;;;4.68;1.92;;;;;;;7.53;68.98;100134.09;5006202;28;20054;-45
2022/05/12 03:29:35;;;;;;;4.80;2.38;;;;;;;7.51;68.12;100138.38;5005136;28;20053;-46
2022/05/12 03:32:03;;;;;;;5.80;2.47;;;;;;;7.46;69.33;100134.03;5004119;28;20053;-44
2022/05/12 03:34:30;;;;;;;4.13;1.10;;;;;;;7.46;69.58;100138.31;5003871;28;20470;-44
2022/05/12 03:36:57;;;;;;;7.22;2.45;;;;;;;7.44;68.75;100145.16;5005105;28;20046;-47
2022/05/12 03:39:24;;;;;;;2.50;2.20;;;;;;;7.41;69.41;100140.84;5005170;28;20088;-56
2022/05/12 03:41:51;;;;;;;4.63;2.67;;;;;;;7.40;69.66;100140.81;5005809;28;20059;-48
2022/05/12 03:47:04;;;;;;;6.60;2.72;;;;;;;7.35;68.93;100143.34;5015956;28;20513;-45
2022/05/12 03:49:31;;;;;;;4.03;2.55;;;;;;;7.34;69.81;100144.19;4999521;28;20131;-46
2022/05/12 03:51:57;;;;;;;6.07;2.78;;;;;;;7.32;69.56;100138.16;5021427;28;20045;-49
2022/05/12 03:54:24;;;;;;;2.67;1.98;;;;;;;7.31;68.55;100144.16;5009505;28;20046;-44
2022/05/12 03:56:51;;;;;;;7.78;2.47;;;;;;;7.29;69.00;100140.69;5007184;28;20100;-43
2022/05/12 03:59:17;;;;;;;4.72;2.83;;;;;;;7.28;68.63;100149.25;5006968;28;20494;-49
2022/05/12 04:01:44;;;;;;;4.53;2.70;;;;;;;7.25;68.87;100139.78;5003024;28;20053;-46
2022/05/12 04:04:11;;;;;;;4.00;2.30;;;;;;;7.22;69.83;100138.91;5004676;28;20053;-44
2022/05/12 04:06:37;;;;;;;6.10;1.50;;;;;;;7.22;68.57;100144.91;5004052;28;20379;-46
2022/05/12 04:09:04;;;;;;;5.53;1.65;;;;;;;7.19;70.42;100140.56;5014329;28;20433;-48
2022/05/12 04:11:31;;;;;;;6.15;2.47;;;;;;;7.18;70.33;100141.44;5004783;28;20438;-46
2022/05/12 04:13:57;;;;;;;4.85;2.22;;;;;;;7.19;69.74;100140.56;5008896;28;20050;-46
2022/05/12 04:16:24;;;;;;;4.40;2.53;;;;;;;7.18;69.62;100137.97;5004629;28;20081;-44
2022/05/12 04:18:51;;;;;;;5.00;2.53;;;;;;;7.18;69.03;100143.13;5002928;28;20482;-46
2022/05/12 04:21:17;;;;;;;9.75;2.55;;;;;;;7.18;69.70;100149.16;5008016;28;20050;-43
2022/05/12 04:23:44;;;;;;;2.50;2.30;;;;;;;7.20;69.38;100147.44;5006573;28;20139;-45
2022/05/12 04:26:11;;;;;;;7.00;2.47;;;;;;;7.20;70.09;100152.59;5009734;28;20046;-44
2022/05/12 04:28:37;;;;;;;3.42;2.35;;;;;;;7.22;69.99;100159.50;5010053;28;20119;-43
2022/05/12 04:31:04;;;;;;;4.15;2.28;;;;;;;7.21;70.42;100161.22;5028311;28;20367;-46
2022/05/12 04:36:17;;;;;;;4.38;2.65;;;;;;;7.24;70.99;100162.94;5003831;28;20050;-45
2022/05/12 04:38:44;;;;;;;5.93;2.22;;;;;;;7.24;70.32;100163.81;5009915;28;20049;-49
2022/05/12 04:41:10;;;;;;;5.68;2.55;;;;;;;7.24;70.75;100163.81;5009451;28;20045;-44
2022/05/12 04:43:37;;;;;;;5.50;2.42;;;;;;;7.28;69.46;100162.16;5008121;28;20049;-46
2022/05/12 04:46:04;;;;;;;3.65;2.38;;;;;;;7.27;70.89;100166.44;5009877;28;20188;-45
2022/05/12 04:48:31;;;;;;;7.05;2.47;;;;;;;7.30;70.42;100166.47;5025609;28;20047;-44
2022/05/12 04:50:59;;;;;;;9.02;3.25;;;;;;;7.33;70.38;100178.53;5011095;28;20689;-42
2022/05/12 04:53:27;;;;;;;6.18;2.83;;;;;;;7.34;70.56;100180.28;5000635;28;20058;-44
2022/05/12 04:55:54;;;;;;;8.50;2.55;;;;;;;7.36;69.76;100177.72;5008848;28;20042;-44
2022/05/12 04:58:20;;;;;;;3.83;2.40;;;;;;;7.39;70.34;100173.44;5006896;28;20525;-46
2022/05/12 05:00:47;;;;;;;8.40;2.53;;;;;;;7.42;69.70;100177.78;5024968;28;20049;-50
2022/05/12 05:03:14;;;;;;;8.77;1.83;;;;;;;7.43;69.64;100185.53;5012797;28;20512;-49
2022/05/12 05:05:46;;;;;;;6.88;2.35;;;;;;;7.50;69.80;100190.78;5003560;28;20050;-44
2022/05/12 05:08:16;;;;;;;5.18;2.42;;;;;;;7.55;70.83;100194.25;5005792;28;20116;-50
2022/05/12 05:10:43;;;;;;;5.93;2.70;;;;;;;7.62;70.70;100201.22;5008391;28;20100;-43
2022/05/12 05:13:10;;;;;;;7.20;3.33;;;;;;;7.71;70.47;100195.31;5001770;28;20096;-45
2022/05/12 05:15:37;;;;;;;11.68;2.78;;;;;;;7.80;71.03;100200.56;5003719;28;20085;-46
2022/05/12 05:18:10;;;;;;;10.10;3.75;;;;;;;7.91;69.96;100195.50;5018050;28;20107;-48
2022/05/12 05:20:37;;;;;;;10.50;3.17;;;;;;;8.02;70.33;100199.94;5016571;28;20050;-48
2022/05/12 05:23:04;;;;;;;6.93;3.85;;;;;;;8.15;70.50;100201.78;5005593;28;20058;-44
2022/05/12 05:25:31;;;;;;;6.32;3.25;;;;;;;8.26;71.08;100208.75;5009087;28;20053;-46
2022/05/12 05:27:58;;;;;;;5.82;2.97;;;;;;;8.38;70.66;100211.47;5027427;28;20080;-48
2022/05/12 05:30:26;;;;;;;9.70;3.22;;;;;;;8.54;71.58;100215.06;5008339;28;20065;-46
2022/05/12 05:32:54;;;;;;;7.38;3.35;;;;;;;8.70;70.80;100221.22;5008989;28;20096;-47
2022/05/12 05:35:22;;;;;;;7.43;2.90;;;;;;;8.87;71.23;100217.88;4996725;28;20046;-47
2022/05/12 05:37:50;;;;;;;7.47;2.97;;;;;;;9.01;70.63;100230.91;5020434;28;20054;-50
2022/05/12 05:40:20;;;;;;;6.93;2.60;;;;;;;9.18;70.89;100223.25;5007247;28;20045;-45
2022/05/12 05:42:47;;;;;;;7.30;2.85;;;;;;;9.34;70.69;100223.34;5008311;28;20058;-49
2022/05/12 05:45:17;;;;;;;7.82;2.47;;;;;;;9.50;70.45;100230.31;5009948;28;20054;-49
2022/05/12 05:47:45;;;;;;;;;;;;;;;9.60;70.57;100230.38;5008996;28;20053;-48
2022/05/12 05:50:15;;;;;;;5.20;2.65;;;;;;;9.80;69.44;100237.34;5006663;28;19948;-47
2022/05/12 05:55:28;;;;;;;8.10;3.60;;;;;;;10.19;69.54;100245.19;5008348;28;20096;-48
2022/05/12 05:58:00;;;;;;;7.53;2.67;;;;;;;10.35;69.50;100257.31;5008159;28;20077;-51
2022/05/12 06:00:28;;;;;;;5.60;2.72;;;;;;;10.56;69.57;100260.81;4998985;28;20046;-48
2022/05/12 06:02:55;;;;;;;4.10;2.55;;;;;;;10.75;69.07;100264.28;5009754;28;20535;-50
2022/05/12 06:05:22;;;;;;;4.55;2.75;;;;;;;10.96;68.61;100265.13;5007580;28;20498;-50
2022/05/12 06:07:49;;;;;;;5.90;2.70;;;;;;;11.16;68.17;100272.03;5008633;28;20095;-49
2022/05/12 06:10:15;;;;;;;8.23;2.22;;;;;;;11.23;67.32;100263.38;5000269;28;20046;-44
2022/05/12 06:12:42;;;;;;;6.75;2.60;;;;;;;11.38;66.71;100277.19;5007059;28;20050;-46
2022/05/12 06:15:10;;;;;;;8.68;3.00;;;;;;;11.46;67.20;100275.41;5009081;28;20941;-48
2022/05/12 06:17:38;;;;;;;8.63;3.05;;;;;;;11.53;66.83;100277.13;5006687;28;20085;-49
2022/05/12 06:20:06;;;;;;;5.30;2.92;;;;;;;11.54;66.89;100289.22;5004731;28;20129;-48
2022/05/12 06:22:33;;;;;;;6.05;2.97;;;;;;;11.51;66.75;100280.56;5003201;28;20066;-49
2022/05/12 06:25:02;;;;;;;6.00;2.92;;;;;;;11.66;67.16;100277.09;5006051;28;20556;-47
2022/05/12 06:27:28;;;;;;;7.82;1.90;;;;;;;11.89;66.25;100284.75;5002436;28;20552;-48
2022/05/12 06:29:56;;;;;;;8.68;2.80;;;;;;;12.15;65.96;100290.72;5006061;28;20180;-47
2022/05/12 06:32:23;;;;;;;5.07;2.67;;;;;;;12.42;65.71;100294.03;5009897;28;20050;-50
2022/05/12 06:34:49;;;;;;;7.35;1.60;;;;;;;12.76;65.37;100291.19;4996953;28;20646;-46
2022/05/12 06:37:16;;;;;;;3.13;2.42;;;;;;;13.15;66.58;100295.22;5001874;28;20100;-48
2022/05/12 06:39:43;;;;;;;5.70;2.47;;;;;;;13.50;65.74;100301.81;5018483;28;20077;-47
2022/05/12 06:42:10;;;;;;;5.85;3.00;;;;;;;13.87;64.56;100304.00;5016359;28;20053;-47
2022/05/12 06:44:37;;;;;;;6.20;3.17;;;;;;;14.17;64.09;100302.75;5008574;28;20132;-48
2022/05/12 06:47:07;;;;;;;6.03;3.28;;;;;;;14.48;63.78;100302.31;5006072;28;20049;-47
2022/05/12 06:49:35;;;;;;;5.40;2.85;;;;;;;14.80;63.83;100308.84;5018090;28;20123;-52
2022/05/12 06:52:05;;;;;;;5.53;3.20;;;;;;;15.12;62.71;100312.63;4997238;28;20135;-45
2022/05/12 06:54:32;;;;;;;3.70;1.25;;;;;;;15.49;62.10;100307.63;4997565;28;20398;-45
2022/05/12 06:57:00;;;;;;;5.72;2.70;;;;;;;15.79;61.99;100310.53;5000950;28;20137;-48
2022/05/12 06:59:28;;;;;;;4.90;2.65;;;;;;;16.08;60.71;100305.63;4996872;28;20172;-48
2022/05/12 07:01:55;;;;;;;4.20;1.20;;;;;;;16.37;60.07;100307.59;5000508;28;20743;-48
2022/05/12 07:04:24;;;;;;;7.45;2.55;;;;;;;16.72;59.58;100296.34;5019579;28;20126;-47
2022/05/12 07:06:51;;;;;;;6.20;2.17;;;;;;;16.93;58.74;100301.03;4998490;28;20042;-49
2022/05/12 07:09:19;;;;;;;4.60;2.92;;;;;;;17.18;58.29;100310.91;5004286;28;20046;-49
2022/05/12 07:11:46;;;;;;;5.43;2.20;;;;;;;17.37;56.42;100315.66;4997545;28;20045;-52
2022/05/12 07:14:14;;;;;;;9.63;3.58;;;;;;;17.63;56.55;100316.69;4992642;28;20085;-50
2022/05/12 07:16:42;;;;;;;9.38;2.83;;;;;;;17.90;56.27;100318.59;5001854;28;20104;-50
2022/05/12 07:19:09;;;;;;;5.05;2.85;;;;;;;18.13;55.08;100315.31;5006261;28;20060;-48
2022/05/12 07:27:08;;;;;;;5.72;2.35;;;;;;;18.88;53.79;100313.84;5004257;28;20112;-51
2022/05/12 07:29:35;;;;;;;5.32;2.47;;;;;;;19.09;52.65;100310.56;5006031;28;20177;-52
2022/05/12 07:32:02;;;;;;;5.38;2.45;;;;;;;19.27;52.23;100325.69;5002998;28;20100;-48
2022/05/12 07:34:28;;;;;;;4.97;2.35;;;;;;;19.48;52.00;100312.72;5006719;28;20093;-51
2022/05/12 07:36:56;;;;;;;4.63;1.80;;;;;;;19.68;51.60;100318.13;5024890;28;20049;-49
2022/05/12 07:39:29;;;;;;;4.90;2.17;;;;;;;19.91;51.17;100314.69;5003519;28;20046;-53
2022/05/12 07:41:57;;;;;;;5.50;1.90;;;;;;;20.22;50.65;100313.53;5006637;28;20465;-49
2022/05/12 07:44:32;;;;;;;5.75;2.38;;;;;;;20.39;49.79;100315.50;5005420;28;20049;-54
2022/05/12 07:47:02;;;;;;;5.72;2.78;;;;;;;20.65;49.90;100315.38;5004844;28;20107;-51
2022/05/12 07:49:31;;;;;;;5.75;1.42;;;;;;;20.94;49.57;100321.25;5009072;28;20440;-51
2022/05/12 07:51:59;;;;;;;5.97;3.28;;;;;;;21.25;49.04;100325.22;5023290;28;20076;-52
2022/05/12 07:54:27;;;;;;;6.55;2.63;;;;;;;21.46;48.12;100327.81;5005760;28;20125;-54
2022/05/12 07:56:54;;;;;;;7.10;2.70;;;;;;;21.64;47.14;100335.81;4998043;28;20112;-52
2022/05/12 07:59:21;;;;;;;6.20;2.42;;;;;;;21.86;47.63;100348.94;4995567;28;20046;-49
2022/05/12 08:01:48;;;;;;;6.28;2.38;;;;;;;22.08;46.54;100340.88;5003322;28;20452;-53
2022/05/12 08:04:15;;;;;;;3.55;2.08;;;;;;;22.29;46.18;100351.34;5010104;28;20045;-49
2022/05/12 08:06:43;;;;;;;3.97;2.38;;;;;;;22.45;45.50;100348.84;5003978;28;20057;-49
2022/05/12 08:09:11;;;;;;;5.90;2.70;;;;;;;22.52;44.68;100349.41;5023257;28;20045;-51
2022/05/12 08:11:39;;;;;;;5.47;2.55;;;;;;;22.63;44.06;100356.00;5009188;28;20050;-47
2022/05/12 08:14:06;;;;;;;4.45;2.53;;;;;;;22.71;44.28;100353.81;5005746;28;20056;-56
2022/05/12 08:16:34;;;;;;;3.63;0.85;;;;;;;22.85;43.63;100351.38;5003726;28;20411;-48
2022/05/12 08:19:01;;;;;;;4.20;2.03;;;;;;;23.06;43.50;100358.28;5017198;28;20409;-49
2022/05/12 08:21:27;;;;;;;5.13;1.67;;;;;;;23.09;42.13;100361.63;5005602;28;20042;-50
2022/05/12 08:23:54;;;;;;;3.78;2.65;;;;;;;23.13;41.90;100353.56;5002651;28;20042;-52
2022/05/12 08:26:22;;;;;;;5.03;1.80;;;;;;;23.24;42.18;100362.63;5013584;28;20179;-48
2022/05/12 08:28:50;;;;;;;4.68;2.20;;;;;;;23.31;41.46;100357.91;5028553;28;20049;-50
2022/05/12 08:31:21;;;;;;;4.13;1.73;;;;;;;23.40;40.79;100371.59;5025478;28;20049;-48
2022/05/12 08:33:48;;;;;;;3.60;2.03;;;;;;;23.38;40.42;100363.75;5008048;28;20134;-49
2022/05/12 08:36:15;;;;;;;5.35;1.73;;;;;;;23.40;40.59;100363.66;5001909;28;20050;-49
2022/05/12 08:38:44;;;;;;;4.68;1.45;;;;;;;23.43;40.24;100368.78;4997818;28;20100;-54
2022/05/12 08:41:42;;;;;;;4.10;2.47;;;;;;;23.51;39.85;100369.25;5000489;28;20136;-55
2022/05/12 08:44:13;;;;;;;3.10;2.40;;;;;;;23.66;39.47;100372.00;5000826;28;20375;-47
2022/05/12 08:54:55;;;;;;;4.88;1.63;;;;;;;24.13;37.89;100371.28;5045689;28;20405;-52
2022/05/12 08:57:29;;;;;;;1.55;0.85;;;;;;;24.30;38.08;100371.28;5019887;28;20072;-54
2022/05/12 08:59:57;;;;;;;1.50;0.63;;;;;;;24.21;37.44;100367.38;5011517;28;20054;-51
2022/05/12 09:05:18;;;;;;;1.40;0.50;;;;;;;24.28;35.85;100363.44;5020054;28;20415;-55
2022/05/12 09:08:10;;;;;;;3.83;1.77;;;;;;;24.12;33.98;100363.44;4995842;28;20446;-53
2022/05/12 09:13:44;;;;;;;1.88;1.48;;;;;;;23.75;37.28;100356.50;5041854;27;20409;-51
2022/05/12 09:16:18;;;;;;;3.60;1.67;;;;;;;24.11;36.08;100344.06;5011583;28;20061;-50
2022/05/12 09:18:46;;;;;;;2.60;1.20;;;;;;;24.21;36.35;100351.50;5014888;28;20054;-51
2022/05/12 09:21:18;;;;;;;2.35;1.45;;;;;;;23.95;35.12;100356.38;5004231;28;20470;-55
2022/05/12 09:23:45;;;;;;;5.45;1.80;;;;;;;23.55;36.62;100354.94;5000824;28;20101;-55
2022/05/12 09:31:54;;;;;;;3.85;0.65;;;;;;;22.65;36.58;100362.03;5022344;28;20409;-49
2022/05/12 09:37:20;;;;;;;3.33;0.50;;;;;;;22.41;36.35;100363.13;5035487;27;20899;-50
2022/05/12 09:39:50;;;;;;;2.42;0.70;;;;;;;22.47;36.39;100360.16;5006297;28;20046;-50
2022/05/12 09:48:25;;;;;;;2.58;0.60;;;;;;;23.16;35.50;100356.88;5032700;28;20401;-54
2022/05/12 09:50:53;;;;;;;1.25;0.40;;;;;;;23.30;34.26;100361.47;4996017;28;20049;-50
2022/05/12 09:53:29;;;;;;;1.95;0.30;;;;;;;23.18;33.17;100370.88;4990503;28;20082;-47
2022/05/12 10:09:32;;;;;;;1.33;0.47;;;;;;;22.11;35.83;100375.94;4996636;28;20046;-45
2022/05/12 10:14:46;;;;;;;1.73;1.40;;;;;;;22.11;37.04;100370.66;5049675;28;20393;-47
2022/05/12 10:20:01;;;;;;;2.30;0.60;;;;;;;22.67;35.86;100362.81;5013274;27;20408;-51
2022/05/12 10:22:39;;;;;;;2.70;0.65;;;;;;;22.38;34.86;100367.66;5008598;28;20108;-48
2022/05/12 10:28:22;;;;;;;2.47;0.50;;;;;;;21.32;36.01;100370.56;5014120;28;20407;-50
2022/05/12 10:47:12;;;;;;;4.90;1.75;;;;;;;20.31;38.06;100364.06;5026478;27;20438;-46
2022/05/12 10:52:37;;;;;;;2.65;0.80;;;;;;;20.97;38.30;100354.50;5038857;27;20414;-47
2022/05/12 10:55:43;;;;;;;2.40;0.98;;;;;;;21.46;37.71;100354.16;5002096;28;20515;-53
2022/05/12 16:34:32;;;;;;;1.90;0.73;;;;;;;18.45;40.04;100232.19;5009350;28;20392;-52
2022/05/12 16:36:58;;;;;;;5.28;0.80;;;;;;;18.36;40.13;100222.84;4994088;28;20045;-50
2022/05/12 16:39:26;;;;;;;3.75;0.82;;;;;;;18.28;40.49;100218.75;5002544;28;20053;-44
2022/05/12 16:41:53;;;;;;;1.70;0.77;;;;;;;18.23;40.55;100222.38;5002556;28;20054;-57
2022/05/12 16:44:20;;;;;;;5.40;1.13;;;;;;;18.14;40.18;100224.44;5003309;28;20514;-46
2022/05/12 16:46:49;;;;;;;4.30;1.13;;;;;;;18.02;40.83;100228.25;5015543;28;20537;-55
2022/05/12 16:49:22;;;;;;;6.60;1.13;;;;;;;17.92;41.02;100223.31;5016885;28;20107;-48
2022/05/12 16:51:48;;;;;;;4.95;1.00;;;;;;;17.84;40.41;100227.94;5019266;28;20038;-49
2022/05/12 16:54:15;;;;;;;3.33;0.90;;;;;;;17.75;40.81;100228.19;5021555;28;20053;-49
2022/05/12 16:56:42;;;;;;;3.08;1.35;;;;;;;17.72;40.73;100227.38;5019108;28;20068;-50
2022/05/12 16:59:10;;;;;;;4.28;1.25;;;;;;;17.65;41.15;100235.44;5017434;28;20104;-51
2022/05/12 17:01:37;;;;;;;4.30;1.15;;;;;;;17.55;41.18;100240.97;5018580;28;20132;-47
2022/05/12 17:04:05;;;;;;;3.30;0.90;;;;;;;17.53;42.01;100241.94;5018623;28;20077;-52
2022/05/12 17:06:33;;;;;;;5.82;1.00;;;;;;;17.47;41.62;100243.78;5017370;28;20053;-46
2022/05/12 17:08:59;;;;;;;4.03;1.13;;;;;;;17.44;41.54;100243.91;5015743;28;20055;-47
2022/05/12 17:11:46;;;;;;;4.82;1.33;;;;;;;17.38;42.13;100238.84;5021043;28;20053;-48
2022/05/12 17:14:13;;;;;;;3.53;1.23;;;;;;;17.32;42.65;100239.00;5018332;28;20096;-47
2022/05/12 17:16:40;;;;;;;6.10;1.02;;;;;;;17.26;42.56;100241.81;5015107;28;20053;-46
2022/05/12 17:19:07;;;;;;;4.47;1.08;;;;;;;17.26;43.28;100242.63;5012995;28;20058;-48
2022/05/12 17:21:34;;;;;;;4.45;1.38;;;;;;;17.26;42.89;100242.63;5014718;28;20049;-49
2022/05/12 17:24:01;;;;;;;3.15;1.00;;;;;;;17.22;43.54;100243.63;5015672;28;20038;-50
2022/05/12 17:26:28;;;;;;;3.75;1.23;;;;;;;17.13;43.08;100246.50;5019842;28;20048;-52
2022/05/12 17:28:55;;;;;;;6.85;1.95;;;;;;;17.10;42.33;100242.22;5020001;28;20421;-49
2022/05/12 17:31:23;;;;;;;2.05;0.98;;;;;;;17.04;43.44;100251.06;5022391;28;20581;-55
2022/05/12 17:33:51;;;;;;;5.90;1.17;;;;;;;17.01;43.07;100247.66;5024063;28;20045;-45
2022/05/12 17:36:18;;;;;;;3.50;1.33;;;;;;;16.96;43.38;100248.63;5018431;28;20053;-50
2022/05/12 17:38:47;;;;;;;4.43;0.93;;;;;;;16.91;43.33;100247.91;5026126;28;20080;-45
2022/05/12 17:41:14;;;;;;;14.88;6.78;;;;;;;16.90;43.85;100240.09;5021630;28;20490;-48
2022/05/12 17:43:42;;;;;;;3.10;2.28;;;;;;;16.85;43.32;100240.19;5022327;28;20088;-49
2022/05/12 17:46:11;;;;;;;4.78;1.48;;;;;;;16.83;43.70;100234.16;5011094;28;20046;-44
2022/05/12 17:48:40;;;;;;;3.72;1.15;;;;;;;16.79;43.55;100229.91;5005592;28;20042;-50
2022/05/12 17:51:10;;;;;;;7.03;1.13;;;;;;;16.76;43.50;100232.59;5009982;28;20045;-48
2022/05/12 17:53:37;;;;;;;2.38;0.98;;;;;;;16.70;43.68;100234.47;5010801;28;20141;-48
2022/05/12 17:56:04;;;;;;;4.75;0.95;;;;;;;16.65;43.88;100235.50;5008356;28;20054;-44
2022/05/12 17:58:32;;;;;;;3.40;1.30;;;;;;;16.61;43.56;100237.31;5007353;28;20061;-45
2022/05/12 18:00:59;;;;;;;5.20;1.10;;;;;;;16.54;43.56;100231.38;5005509;28;20180;-48
2022/05/12 18:03:26;;;;;;;3.17;0.70;;;;;;;16.52;43.51;100238.38;5007669;28;20045;-44
2022/05/12 18:05:53;;;;;;;2.47;0.90;;;;;;;16.50;43.39;100234.09;5009515;28;20046;-46
2022/05/12 18:08:22;;;;;;;6.15;1.45;;;;;;;16.49;43.44;100227.16;5008624;28;20438;-46
2022/05/12 18:10:52;;;;;;;3.67;1.00;;;;;;;16.51;43.89;100225.38;5007220;28;20053;-55
2022/05/12 18:13:20;;;;;;;6.60;2.17;;;;;;;16.55;44.13;100227.03;5008510;28;20104;-48
2022/05/12 18:15:49;;;;;;;4.93;1.73;;;;;;;16.54;43.63;100235.75;5008788;28;20063;-45
2022/05/12 18:18:16;;;;;;;8.27;1.83;;;;;;;16.45;43.68;100232.47;5004488;28;20067;-50
2022/05/12 18:20:44;;;;;;;2.85;1.05;;;;;;;16.37;44.23;100231.78;5009933;28;20494;-50
2022/05/12 18:23:11;;;;;;;5.22;1.10;;;;;;;16.27;43.99;100227.66;5005857;28;20042;-50
2022/05/12 18:25:38;;;;;;;4.40;1.20;;;;;;;16.17;44.05;100221.81;5006946;28;20104;-48
2022/05/12 18:28:08;;;;;;;2.00;1.00;;;;;;;16.03;44.40;100214.28;5009940;28;20560;-53
2022/05/12 18:30:35;;;;;;;3.45;0.93;;;;;;;15.94;43.91;100221.41;5008464;28;20049;-45
2022/05/12 18:33:03;;;;;;;2.50;1.45;;;;;;;15.85;44.18;100216.41;5007313;28;20046;-54
2022/05/12 18:35:32;;;;;;;3.40;0.77;;;;;;;15.76;44.66;100221.81;5007942;28;20052;-46